createdAt,value
2018-07-04T00:01:10.167Z,95475.88
2018-07-04T00:03:49.901Z,95475.52
2018-07-04T00:06:29.731Z,95480.23
2018-07-04T00:09:09.559Z,95490.41
2018-07-04T00:11:49.184Z,95484.53
2018-07-04T00:14:29.001Z,95478.06
2018-07-04T00:17:08.790Z,95481.59
2018-07-04T00:19:48.391Z,95483.77
2018-07-04T00:22:28.208Z,95481.00
2018-07-04T00:25:07.832Z,95485.34
2018-07-04T00:27:47.602Z,95486.89
2018-07-04T00:30:27.363Z,95486.91
2018-07-04T00:33:07.102Z,95489.63
2018-07-04T00:35:46.779Z,95491.39
2018-07-04T00:38:26.662Z,95485.33
2018-07-04T00:41:06.131Z,95486.91
2018-07-04T00:43:45.818Z,95487.88
2018-07-04T00:46:25.370Z,95489.45
2018-07-04T00:49:05.220Z,95494.53
2018-07-04T00:51:44.960Z,95497.47
2018-07-04T00:54:24.639Z,95499.43
2018-07-04T00:57:04.410Z,95497.66
2018-07-04T00:59:44.427Z,95490.41
2018-07-04T01:02:24.370Z,95488.26
2018-07-04T01:05:04.059Z,95488.27
2018-07-04T01:07:43.807Z,95486.11
2018-07-04T01:10:23.477Z,95445.54
2018-07-04T01:13:03.248Z,95475.52
2018-07-04T01:15:43.132Z,95474.14
2018-07-04T01:18:22.882Z,95476.49
2018-07-04T01:21:07.798Z,95474.13
2018-07-04T01:23:47.694Z,95476.28
2018-07-04T01:26:27.435Z,95470.20
2018-07-04T01:29:07.544Z,95472.38
2018-07-04T01:31:47.275Z,95470.58
2018-07-04T01:34:27.039Z,95469.19
2018-07-04T01:37:06.873Z,95473.48
2018-07-04T01:39:46.640Z,95474.27
2018-07-04T01:42:26.362Z,95473.67
2018-07-04T01:45:06.308Z,95470.95
2018-07-04T01:47:46.046Z,95463.55
2018-07-04T01:50:25.823Z,95463.89
2018-07-04T01:53:05.533Z,95461.36
2018-07-04T01:55:45.272Z,95459.56
2018-07-04T01:58:24.933Z,95459.38
2018-07-04T02:01:04.590Z,95456.25
2018-07-04T02:03:44.221Z,95472.30
2018-07-04T02:06:25.098Z,95467.17
2018-07-04T02:09:05.284Z,95470.86
2018-07-04T02:11:45.567Z,95475.94
2018-07-04T02:14:25.437Z,95474.58
2018-07-04T02:17:05.347Z,95475.55
2018-07-04T02:19:45.106Z,95469.09
2018-07-04T02:22:24.791Z,95467.49
2018-07-04T02:25:04.546Z,95465.31
2018-07-04T02:27:44.421Z,95467.44
2018-07-04T02:30:24.126Z,95464.28
2018-07-04T02:33:04.045Z,95467.98
2018-07-04T02:35:43.783Z,95459.78
2018-07-04T02:38:23.528Z,95465.47
2018-07-04T02:41:03.315Z,95464.70
2018-07-04T02:43:43.118Z,95463.12
2018-07-04T02:46:28.103Z,95460.75
2018-07-04T02:49:07.762Z,95461.11
2018-07-04T02:51:47.391Z,95459.17
2018-07-04T02:54:27.132Z,95463.82
2018-07-04T02:57:06.849Z,95458.34
2018-07-04T02:59:46.507Z,95473.00
2018-07-04T03:02:26.230Z,95468.65
2018-07-04T03:05:05.917Z,95469.23
2018-07-04T03:07:45.748Z,95483.73
2018-07-04T03:10:25.576Z,95487.47
2018-07-04T03:13:05.323Z,95493.95
2018-07-04T03:15:44.980Z,95495.32
2018-07-04T03:18:24.547Z,95490.03
2018-07-04T03:21:04.247Z,95491.75
2018-07-04T03:23:44.347Z,95472.72
2018-07-04T03:26:24.047Z,95473.51
2018-07-04T03:29:03.653Z,95472.14
2018-07-04T03:31:43.428Z,95477.06
2018-07-04T03:34:23.148Z,95484.09
2018-07-04T03:37:02.900Z,95478.98
2018-07-04T03:39:42.570Z,95479.38
2018-07-04T03:42:22.500Z,95476.95
2018-07-04T03:45:02.253Z,95479.33
2018-07-04T03:47:42.042Z,95481.52
2018-07-04T03:50:21.624Z,95483.50
2018-07-04T03:53:01.419Z,95474.52
2018-07-04T03:55:41.019Z,95465.36
2018-07-04T03:58:21.004Z,95459.72
2018-07-04T04:01:00.862Z,95462.64
2018-07-04T04:03:40.691Z,95466.40
2018-07-04T04:06:20.511Z,95464.86
2018-07-04T04:09:00.135Z,95473.68
2018-07-04T04:11:39.779Z,95488.16
2018-07-04T04:14:19.371Z,95498.72
2018-07-04T04:16:58.974Z,95498.91
2018-07-04T04:19:38.690Z,95514.41
2018-07-04T04:22:18.353Z,95519.91
2018-07-04T04:24:58.044Z,95523.47
2018-07-04T04:27:37.662Z,95528.58
2018-07-04T04:30:17.566Z,95533.28
2018-07-04T04:32:57.940Z,95530.76
2018-07-04T04:35:37.594Z,95529.78
2018-07-04T04:38:17.239Z,95532.34
2018-07-04T04:40:56.896Z,95532.72
2018-07-04T04:43:36.537Z,95538.20
2018-07-04T04:46:16.635Z,95535.09
2018-07-04T04:48:56.369Z,95541.75
2018-07-04T04:51:36.083Z,95530.17
2018-07-04T04:54:15.882Z,95526.28
2018-07-04T04:56:55.584Z,95527.84
2018-07-04T04:59:35.385Z,95520.98
2018-07-04T05:02:15.165Z,95519.02
2018-07-04T05:04:55.372Z,95516.47
2018-07-04T05:07:34.988Z,95511.39
2018-07-04T05:10:14.756Z,95518.23
2018-07-04T05:12:54.668Z,95505.53
2018-07-04T05:15:34.507Z,95495.69
2018-07-04T05:18:14.163Z,95495.68
2018-07-04T05:20:53.755Z,95499.38
2018-07-04T05:23:33.433Z,95503.80
2018-07-04T05:26:13.167Z,95510.65
2018-07-04T05:28:53.081Z,95499.86
2018-07-04T05:31:32.778Z,95502.41
2018-07-04T05:34:12.445Z,95505.50
2018-07-04T05:36:52.129Z,95498.84
2018-07-04T05:39:31.727Z,95501.17
2018-07-04T05:42:11.732Z,95499.59
2018-07-04T05:44:51.514Z,95492.72
2018-07-04T05:47:31.149Z,95496.97
2018-07-04T05:50:10.771Z,95495.77
2018-07-04T05:52:50.518Z,95492.84
2018-07-04T05:55:30.282Z,95480.09
2018-07-04T05:58:10.020Z,95490.44
2018-07-04T06:00:49.928Z,95478.51
2018-07-04T06:03:29.631Z,95469.09
2018-07-04T06:06:09.993Z,95467.89
2018-07-04T06:08:49.743Z,95473.36
2018-07-04T06:11:29.632Z,95470.41
2018-07-04T06:14:09.422Z,95463.12
2018-07-04T06:16:49.213Z,95463.75
2018-07-04T06:19:28.891Z,95465.52
2018-07-04T06:22:08.586Z,95457.42
2018-07-04T06:24:48.819Z,95455.64
2018-07-04T06:27:28.512Z,95456.41
2018-07-04T06:30:08.259Z,95448.69
2018-07-04T06:32:47.879Z,95453.88
2018-07-04T06:35:27.684Z,95449.58
2018-07-04T06:37:55.047Z,95441.03
2018-07-04T06:40:22.397Z,95440.08
2018-07-04T06:42:50.088Z,95438.66
2018-07-04T06:45:17.718Z,95440.30
2018-07-04T06:47:45.076Z,95429.89
2018-07-04T06:50:12.455Z,95432.62
2018-07-04T06:52:39.796Z,95428.83
2018-07-04T06:55:07.160Z,95433.15
2018-07-04T06:57:34.511Z,95420.52
2018-07-04T07:00:01.859Z,95422.39
2018-07-04T07:02:29.316Z,95427.05
2018-07-04T07:05:09.062Z,95428.31
2018-07-04T07:07:48.954Z,95425.57
2018-07-04T07:10:28.574Z,95417.58
2018-07-04T07:13:08.550Z,95415.09
2018-07-04T07:15:48.272Z,95422.52
2018-07-04T07:18:27.943Z,95412.37
2018-07-04T07:21:08.242Z,95421.23
2018-07-04T07:23:47.959Z,95412.85
2018-07-04T07:26:27.621Z,95417.66
2018-07-04T07:29:08.605Z,95415.08
2018-07-04T07:31:48.340Z,95423.12
2018-07-04T07:34:27.944Z,95417.06
2018-07-04T07:37:07.847Z,95421.64
2018-07-04T07:39:47.757Z,95385.50
2018-07-04T07:42:27.356Z,95417.84
2018-07-04T07:45:07.127Z,95411.07
2018-07-04T07:47:46.818Z,95416.28
2018-07-04T07:50:26.482Z,95408.51
2018-07-04T07:53:06.165Z,95411.23
2018-07-04T07:55:46.263Z,95409.98
2018-07-04T07:58:26.093Z,95409.55
2018-07-04T08:01:05.969Z,95409.31
2018-07-04T08:03:45.694Z,95406.73
2018-07-04T08:06:25.194Z,95409.62
2018-07-04T08:09:05.295Z,95404.99
2018-07-04T08:11:45.128Z,95407.95
2018-07-04T08:14:24.850Z,95402.34
2018-07-04T08:17:04.842Z,95401.80
2018-07-04T08:19:44.705Z,95372.27
2018-07-04T08:22:24.568Z,95404.47
2018-07-04T08:25:04.285Z,95408.53
2018-07-04T08:27:44.312Z,95406.24
2018-07-04T08:30:24.264Z,95393.75
2018-07-04T08:33:04.031Z,95395.42
2018-07-04T08:35:43.806Z,95393.48
2018-07-04T08:38:23.472Z,95394.06
2018-07-04T08:41:03.200Z,95395.86
2018-07-04T08:43:43.061Z,95396.63
2018-07-04T08:46:22.913Z,95387.41
2018-07-04T08:49:02.723Z,95384.62
2018-07-04T08:51:42.392Z,95375.53
2018-07-04T08:54:22.505Z,95372.70
2018-07-04T08:57:02.935Z,95371.40
2018-07-04T08:59:42.682Z,95366.91
2018-07-04T09:02:22.504Z,95363.47
2018-07-04T09:05:02.330Z,95351.34
2018-07-04T09:07:42.680Z,95358.33
2018-07-04T09:10:22.428Z,95359.94
2018-07-04T09:13:02.486Z,95345.56
2018-07-04T09:15:42.525Z,95351.64
2018-07-04T09:18:22.367Z,95350.64
2018-07-04T09:21:02.142Z,95344.11
2018-07-04T09:23:42.067Z,95249.44
2018-07-04T09:26:21.795Z,95337.02
2018-07-04T09:29:01.870Z,95336.69
2018-07-04T09:31:41.752Z,95342.84
2018-07-04T09:34:21.519Z,95333.71
2018-07-04T09:37:01.093Z,95330.05
2018-07-04T09:39:40.953Z,95335.97
2018-07-04T09:42:20.642Z,95335.20
2018-07-04T09:45:00.283Z,95326.60
2018-07-04T09:47:41.664Z,95270.73
2018-07-04T09:50:22.137Z,95309.85
2018-07-04T09:53:01.838Z,95309.81
2018-07-04T09:55:41.768Z,95305.97
2018-07-04T09:58:21.516Z,95298.41
2018-07-04T10:01:06.520Z,95285.16
2018-07-04T10:03:46.515Z,95292.92
2018-07-04T10:06:26.250Z,95282.28
2018-07-04T10:09:06.131Z,95281.07
2018-07-04T10:11:45.840Z,95283.20
2018-07-04T10:14:25.536Z,95277.67
2018-07-04T10:17:05.624Z,95260.64
2018-07-04T10:19:45.544Z,95291.97
2018-07-04T10:22:25.336Z,95292.39
2018-07-04T10:25:05.333Z,95289.95
2018-07-04T10:33:26.539Z,95276.41
2018-07-04T10:36:06.598Z,95276.03
2018-07-04T10:38:46.763Z,95269.72
2018-07-04T10:41:26.712Z,95262.94
2018-07-04T10:44:06.501Z,95265.72
2018-07-04T10:46:46.396Z,95263.66
2018-07-04T10:49:27.059Z,95268.75
2018-07-04T10:52:07.531Z,95262.89
2018-07-04T10:54:47.344Z,95257.77
2018-07-04T10:57:28.820Z,95248.14
2018-07-04T11:00:08.998Z,95242.55
2018-07-04T11:02:49.571Z,95243.71
2018-07-04T11:05:29.714Z,95241.57
2018-07-04T11:08:11.289Z,95234.20
2018-07-04T11:10:51.851Z,95235.00
2018-07-04T11:13:31.726Z,95237.31
2018-07-04T11:16:11.581Z,95234.59
2018-07-04T11:18:51.383Z,95236.03
2018-07-04T11:21:31.344Z,95223.23
2018-07-04T11:24:11.157Z,95236.16
2018-07-04T11:26:51.263Z,95245.37
2018-07-04T11:29:30.974Z,95243.33
2018-07-04T11:32:10.883Z,95242.20
2018-07-04T11:34:50.649Z,95235.05
2018-07-04T11:37:30.545Z,95230.11
2018-07-04T11:40:10.423Z,95228.09
2018-07-04T11:42:50.611Z,95225.80
2018-07-04T11:45:30.518Z,95215.09
2018-07-04T11:47:57.964Z,95195.16
2018-07-04T11:50:25.609Z,95166.50
2018-07-04T11:52:52.981Z,95143.29
2018-07-04T11:55:20.306Z,95152.73
2018-07-04T11:57:47.712Z,95192.19
2018-07-04T12:00:15.081Z,95192.98
2018-07-04T12:02:42.655Z,95196.05
2018-07-04T12:05:22.268Z,95204.02
2018-07-04T12:07:49.689Z,95213.05
2018-07-04T12:10:17.029Z,95208.75
2018-07-04T12:12:44.447Z,95196.05
2018-07-04T12:15:11.851Z,95204.65
2018-07-04T12:17:39.344Z,95197.84
2018-07-04T12:20:06.721Z,95198.36
2018-07-04T12:22:34.085Z,95198.72
2018-07-04T12:25:02.185Z,95204.86
2018-07-04T12:27:29.610Z,95204.19
2018-07-04T12:29:56.976Z,95194.28
2018-07-04T12:32:24.353Z,95191.87
2018-07-04T12:34:51.776Z,95184.83
2018-07-04T12:37:19.199Z,95176.64
2018-07-04T12:39:46.596Z,95168.74
2018-07-04T12:42:14.623Z,95154.14
2018-07-04T12:44:42.041Z,95155.95
2018-07-04T12:47:09.499Z,95147.23
2018-07-04T12:49:37.488Z,95143.11
2018-07-04T12:52:04.884Z,95134.95
2018-07-04T12:54:37.557Z,95132.94
2018-07-04T12:57:17.468Z,95127.20
2018-07-04T12:59:57.644Z,95120.38
2018-07-04T13:02:37.517Z,95119.14
2018-07-04T13:05:17.198Z,95116.22
2018-07-04T13:07:56.960Z,95115.28
2018-07-04T13:10:37.241Z,95108.88
2018-07-04T13:13:17.877Z,95106.30
2018-07-04T13:15:57.478Z,95101.56
2018-07-04T13:18:37.241Z,95086.22
2018-07-04T13:21:16.990Z,95098.09
2018-07-04T13:23:56.808Z,95100.91
2018-07-04T13:26:36.984Z,95099.01
2018-07-04T13:29:16.591Z,95095.09
2018-07-04T13:31:57.530Z,95098.05
2018-07-04T13:34:37.390Z,95100.24
2018-07-04T13:37:17.060Z,95105.84
2018-07-04T13:39:56.842Z,95099.05
2018-07-04T13:42:36.700Z,95105.20
2018-07-04T13:45:16.251Z,95102.69
2018-07-04T13:47:55.760Z,95101.80
2018-07-04T13:50:35.468Z,95094.69
2018-07-04T13:53:15.255Z,95094.55
2018-07-04T13:55:55.144Z,95086.63
2018-07-04T13:58:34.883Z,95083.23
2018-07-04T14:01:14.400Z,95088.36
2018-07-04T14:03:54.075Z,95092.66
2018-07-04T14:06:33.691Z,95086.58
2018-07-04T14:09:13.328Z,95078.67
2018-07-04T14:11:52.943Z,95068.31
2018-07-04T14:14:32.491Z,95054.11
2018-07-04T14:17:12.159Z,95065.41
2018-07-04T14:19:51.878Z,95072.73
2018-07-04T14:22:31.525Z,95083.13
2018-07-04T14:25:11.536Z,95094.84
2018-07-04T14:27:51.215Z,95116.30
2018-07-04T14:30:31.382Z,95123.41
2018-07-04T14:33:11.390Z,95112.95
2018-07-04T14:35:51.169Z,95175.60
2018-07-04T14:38:30.763Z,95138.03
2018-07-04T14:41:10.624Z,95152.34
2018-07-04T14:43:50.478Z,95145.41
2018-07-04T14:46:30.115Z,95153.84
2018-07-04T14:49:09.875Z,95147.66
2018-07-04T14:51:49.518Z,95142.27
2018-07-04T14:54:29.356Z,95139.27
2018-07-04T14:57:09.095Z,95147.19
2018-07-04T14:59:48.818Z,95159.70
2018-07-04T15:02:28.696Z,95164.30
2018-07-04T15:05:08.418Z,95156.33
2018-07-04T15:07:48.147Z,95158.52
2018-07-04T15:10:28.025Z,95148.53
2018-07-04T15:13:07.798Z,95145.42
2018-07-04T15:15:47.546Z,95147.39
2018-07-04T15:18:27.282Z,95162.17
2018-07-04T15:21:06.884Z,95201.45
2018-07-04T15:23:46.437Z,95216.27
2018-07-04T15:26:26.098Z,95210.78
2018-07-04T15:29:05.715Z,95234.99
2018-07-04T15:31:45.499Z,95240.21
2018-07-04T15:34:25.331Z,95232.10
2018-07-04T15:37:05.231Z,95231.92
2018-07-04T15:39:44.905Z,95228.94
2018-07-04T15:42:24.762Z,95224.17
2018-07-04T15:45:04.374Z,95241.50
2018-07-04T15:47:44.303Z,95217.98
2018-07-04T15:50:24.224Z,95219.12
2018-07-04T15:53:04.442Z,95224.27
2018-07-04T15:55:44.295Z,95235.41
2018-07-04T15:58:23.947Z,95252.56
2018-07-04T16:01:03.836Z,95292.55
2018-07-04T16:03:43.770Z,95320.09
2018-07-04T16:06:23.560Z,95358.64
2018-07-04T16:09:04.948Z,95390.55
2018-07-04T16:11:44.795Z,95395.84
2018-07-04T16:14:24.729Z,95385.10
2018-07-04T16:17:04.905Z,95363.23
2018-07-04T16:19:44.597Z,95303.52
2018-07-04T16:22:24.331Z,95330.57
2018-07-04T16:25:04.313Z,95323.84
2018-07-04T16:27:44.105Z,95300.77
2018-07-04T16:30:23.719Z,95290.77
2018-07-04T16:33:03.403Z,95295.70
2018-07-04T16:35:43.288Z,95275.27
2018-07-04T16:38:22.958Z,95264.62
2018-07-04T16:41:02.791Z,95267.02
2018-07-04T16:43:42.970Z,95261.52
2018-07-04T16:46:22.799Z,95249.80
2018-07-04T16:49:02.516Z,95250.41
2018-07-04T16:51:42.236Z,95271.34
2018-07-04T16:54:22.035Z,95301.30
2018-07-04T16:57:01.624Z,95336.69
2018-07-04T16:59:41.316Z,95334.76
2018-07-04T17:02:21.095Z,95332.60
2018-07-04T17:05:01.009Z,95339.25
2018-07-04T17:07:43.188Z,95341.97
2018-07-04T17:10:41.360Z,95369.14
2018-07-04T17:13:21.212Z,95362.30
2018-07-04T17:16:01.119Z,95352.91
2018-07-04T17:18:40.816Z,95335.48
2018-07-04T17:21:20.531Z,95331.95
2018-07-04T17:24:00.304Z,95330.77
2018-07-04T17:26:40.149Z,95318.84
2018-07-04T17:29:20.069Z,95302.08
2018-07-04T17:32:00.088Z,95290.56
2018-07-04T17:34:39.764Z,95310.33
2018-07-04T17:37:19.566Z,95283.02
2018-07-04T17:39:59.152Z,95303.70
2018-07-04T17:42:39.019Z,95306.03
2018-07-04T17:45:18.698Z,95301.50
2018-07-04T17:47:58.504Z,95318.65
2018-07-04T17:50:38.072Z,95330.77
2018-07-04T17:53:19.220Z,95332.75
2018-07-04T17:55:59.194Z,95336.09
2018-07-04T17:58:38.924Z,95346.09
2018-07-04T18:01:18.767Z,95345.34
2018-07-04T18:03:58.781Z,95353.54
2018-07-04T18:06:38.544Z,95368.06
2018-07-04T18:09:18.354Z,95400.16
2018-07-04T18:11:58.115Z,95429.73
2018-07-04T18:14:37.762Z,95469.55
2018-07-04T18:17:17.733Z,95443.37
2018-07-04T18:19:57.462Z,95319.76
2018-07-04T18:22:37.042Z,95411.56
2018-07-04T18:25:16.764Z,95408.25
2018-07-04T18:27:56.408Z,95397.72
2018-07-04T18:30:36.186Z,95428.72
2018-07-04T18:33:16.113Z,95431.49
2018-07-04T18:35:55.876Z,95427.80
2018-07-04T18:38:35.699Z,95432.76
2018-07-04T18:41:15.637Z,95426.97
2018-07-04T18:43:55.434Z,95279.59
2018-07-04T18:46:35.257Z,95423.19
2018-07-04T18:49:14.883Z,95426.46
2018-07-04T18:51:57.990Z,95423.33
2018-07-04T18:54:37.846Z,95428.27
2018-07-04T18:57:27.277Z,95417.47
2018-07-04T19:00:07.205Z,95424.66
2018-07-04T19:02:46.844Z,95418.39
2018-07-04T19:05:26.774Z,95418.00
2018-07-04T19:08:06.498Z,95431.35
2018-07-04T19:10:46.362Z,95438.19
2018-07-04T19:13:26.169Z,95435.86
2018-07-04T19:16:05.745Z,95430.81
2018-07-04T19:18:45.495Z,95431.22
2018-07-04T19:21:25.137Z,95425.34
2018-07-04T19:24:05.144Z,95413.44
2018-07-04T19:26:49.631Z,95404.15
2018-07-04T19:29:29.522Z,95407.36
2018-07-04T19:32:10.598Z,95414.78
2018-07-04T19:34:50.356Z,95409.09
2018-07-04T19:37:30.200Z,95405.81
2018-07-04T19:40:09.978Z,95405.97
2018-07-04T19:42:49.729Z,95411.28
2018-07-04T19:45:29.506Z,95413.47
2018-07-04T19:48:09.226Z,95370.29
2018-07-04T19:50:48.976Z,95422.05
2018-07-04T19:53:28.805Z,95423.17
2018-07-04T19:56:08.659Z,95419.41
2018-07-04T19:58:48.387Z,95417.64
2018-07-04T20:01:28.303Z,95412.33
2018-07-04T20:04:07.975Z,95421.50
2018-07-04T20:06:47.617Z,95422.83
2018-07-04T20:09:27.454Z,95424.99
2018-07-04T20:12:07.185Z,95423.01
2018-07-04T20:14:46.930Z,95418.65
2018-07-04T20:17:26.780Z,95428.19
2018-07-04T20:20:06.631Z,95428.75
2018-07-04T20:22:46.760Z,95437.31
2018-07-04T20:25:26.749Z,95438.10
2018-07-04T20:28:06.383Z,95436.92
2018-07-04T20:30:46.284Z,95437.84
2018-07-04T20:33:25.961Z,95439.20
2018-07-04T20:36:05.876Z,95443.30
2018-07-04T20:38:45.664Z,95439.38
2018-07-04T20:41:25.359Z,95440.73
2018-07-04T20:44:05.256Z,95437.79
2018-07-04T20:46:44.960Z,95443.66
2018-07-04T20:49:24.947Z,95437.09
2018-07-04T20:52:04.686Z,95439.61
2018-07-04T20:54:44.493Z,95434.25
2018-07-04T20:57:24.393Z,95426.77
2018-07-04T21:00:04.257Z,95427.73
2018-07-04T21:02:44.067Z,95441.03
2018-07-04T21:05:23.862Z,95428.39
2018-07-04T21:08:03.724Z,95434.84
2018-07-04T21:10:43.631Z,95441.72
2018-07-04T21:13:23.812Z,95431.05
2018-07-04T21:16:03.709Z,95434.17
2018-07-04T21:18:43.467Z,95432.64
2018-07-04T21:21:23.197Z,95432.06
2018-07-04T21:24:02.891Z,95426.81
2018-07-04T21:26:42.729Z,95424.12
2018-07-04T21:29:22.631Z,95418.44
2018-07-04T21:32:02.477Z,95415.48
2018-07-04T21:34:42.064Z,95421.08
2018-07-04T21:37:21.820Z,95422.18
2018-07-04T21:40:01.599Z,95412.44
2018-07-04T21:42:41.360Z,95409.35
2018-07-04T21:45:21.078Z,95410.72
2018-07-04T21:48:00.758Z,95420.25
2018-07-04T21:50:40.544Z,95419.72
2018-07-04T21:53:20.379Z,95418.49
2018-07-04T21:56:00.190Z,95423.22
2018-07-04T21:58:39.804Z,95429.78
2018-07-04T22:01:19.653Z,95422.20
2018-07-04T22:03:59.642Z,95417.72
2018-07-04T22:06:39.292Z,95421.02
2018-07-04T22:09:19.072Z,95422.91
2018-07-04T22:11:58.828Z,95420.09
2018-07-04T22:14:38.401Z,95417.58
2018-07-04T22:17:18.072Z,95414.84
2018-07-04T22:19:57.676Z,95412.86
2018-07-04T22:22:37.345Z,95405.67
2018-07-04T22:25:17.296Z,95404.53
2018-07-04T22:27:57.205Z,95406.92
2018-07-04T22:30:37.087Z,95406.92
2018-07-04T22:33:16.720Z,95396.91
2018-07-04T22:35:56.624Z,95393.56
2018-07-04T22:38:36.330Z,95392.30
2018-07-04T22:41:16.027Z,95386.05
2018-07-04T22:43:55.743Z,95392.27
2018-07-04T22:46:35.692Z,95390.05
2018-07-04T22:49:15.354Z,95392.93
2018-07-04T22:51:55.362Z,95386.84
2018-07-04T22:54:35.292Z,95390.81
2018-07-04T22:57:15.080Z,95393.33
2018-07-04T22:59:54.996Z,95391.63
2018-07-04T23:02:34.796Z,95391.11
2018-07-04T23:05:14.510Z,95387.98
2018-07-04T23:07:54.346Z,95387.69
2018-07-04T23:10:34.139Z,95382.69
2018-07-04T23:13:13.895Z,95378.19
2018-07-04T23:15:53.739Z,95388.77
2018-07-04T23:18:33.432Z,95387.00
2018-07-04T23:21:13.290Z,95388.31
2018-07-04T23:23:52.995Z,95390.88
2018-07-04T23:26:32.671Z,95393.81
2018-07-04T23:29:12.477Z,95382.70
2018-07-04T23:31:52.332Z,95397.47
2018-07-04T23:34:32.082Z,95390.84
2018-07-04T23:37:11.924Z,95388.91
2018-07-04T23:39:51.579Z,95385.22
2018-07-04T23:42:31.326Z,95383.73
2018-07-04T23:45:10.902Z,95384.55
2018-07-04T23:47:50.575Z,95383.97
2018-07-04T23:50:30.430Z,95379.25
2018-07-04T23:53:10.135Z,95377.91
2018-07-04T23:55:49.962Z,95383.27
2018-07-04T23:58:29.559Z,95381.08
